createdAt,value
2023-01-22T00:02:36.235Z,-0.20
2023-01-22T00:05:37.922Z,-0.20
2023-01-22T00:08:39.608Z,-0.20
2023-01-22T00:11:41.969Z,-0.20
2023-01-22T00:14:43.604Z,-0.30
2023-01-22T00:17:45.314Z,-0.30
2023-01-22T00:20:52.187Z,-0.30
2023-01-22T00:23:54.137Z,-0.20
2023-01-22T00:26:55.771Z,-0.20
2023-01-22T00:29:57.593Z,-0.30
2023-01-22T00:32:59.234Z,-0.30
2023-01-22T00:36:05.397Z,-0.30
2023-01-22T00:39:07.153Z,-0.30
2023-01-22T00:42:08.890Z,-0.30
2023-01-22T00:45:13.631Z,-0.20
2023-01-22T00:48:15.307Z,-0.20
2023-01-22T00:51:17.416Z,-0.30
2023-01-22T00:54:19.284Z,-0.20
2023-01-22T00:57:21.960Z,-0.20
2023-01-22T01:00:23.633Z,-0.20
2023-01-22T01:03:28.319Z,-0.20
2023-01-22T01:06:29.970Z,-0.20
2023-01-22T01:09:31.673Z,-0.20
2023-01-22T01:12:33.307Z,-0.20
2023-01-22T01:15:35.035Z,-0.20
2023-01-22T01:18:37.286Z,-0.20
2023-01-22T01:21:38.996Z,-0.20
2023-01-22T01:24:40.685Z,-0.20
2023-01-22T01:27:42.364Z,-0.20
2023-01-22T01:30:45.090Z,-0.20
2023-01-22T01:33:47.061Z,-0.20
2023-01-22T01:36:49.798Z,-0.20
2023-01-22T01:39:52.492Z,-0.20
2023-01-22T01:42:54.207Z,-0.20
2023-01-22T01:46:02.284Z,-0.20
2023-01-22T01:53:44.565Z,-0.20
2023-01-22T01:56:50.768Z,-0.20
2023-01-22T01:59:53.520Z,-0.20
2023-01-22T02:02:55.720Z,-0.10
2023-01-22T02:05:58.465Z,-0.10
2023-01-22T02:09:00.496Z,-0.10
2023-01-22T02:12:03.337Z,-0.10
2023-01-22T02:15:06.371Z,-0.10
2023-01-22T02:18:08.162Z,-0.10
2023-01-22T02:21:31.736Z,-0.10
2023-01-22T02:24:33.368Z,-0.10
2023-01-22T02:27:35.386Z,-0.10
2023-01-22T02:30:37.151Z,-0.10
2023-01-22T02:33:38.806Z,-0.10
2023-01-22T02:36:40.636Z,-0.10
2023-01-22T02:39:42.413Z,-0.10
2023-01-22T02:42:44.155Z,-0.10
2023-01-22T02:45:46.036Z,-0.10
2023-01-22T02:48:47.745Z,-0.10
2023-01-22T02:51:49.657Z,-0.10
2023-01-22T02:54:51.352Z,-0.10
2023-01-22T02:57:52.976Z,-0.10
2023-01-22T03:00:54.719Z,-0.10
2023-01-22T03:04:01.843Z,0.00
2023-01-22T03:07:03.545Z,0.00
2023-01-22T03:10:05.624Z,0.00
2023-01-22T03:13:25.770Z,0.00
2023-01-22T03:16:46.251Z,0.00
2023-01-22T03:20:06.339Z,0.00
2023-01-22T03:23:08.017Z,0.00
2023-01-22T03:26:09.813Z,0.00
2023-01-22T03:29:11.622Z,0.00
2023-01-22T03:32:13.962Z,0.00
2023-01-22T03:35:15.706Z,0.00
2023-01-22T03:38:17.440Z,0.00
2023-01-22T03:41:19.518Z,0.00
2023-01-22T03:44:21.347Z,0.00
2023-01-22T03:47:23.118Z,0.00
2023-01-22T03:50:24.788Z,0.00
2023-01-22T03:53:27.889Z,0.00
2023-01-22T03:56:29.778Z,0.00
2023-01-22T03:59:31.499Z,0.00
2023-01-22T04:02:34.138Z,0.00
2023-01-22T04:05:35.847Z,0.00
2023-01-22T04:08:39.261Z,0.10
2023-01-22T04:11:40.941Z,0.00
2023-01-22T04:14:42.555Z,0.10
2023-01-22T04:17:44.222Z,0.10
2023-01-22T04:21:29.744Z,0.10
2023-01-22T04:24:31.434Z,0.10
2023-01-22T04:27:37.583Z,0.10
2023-01-22T04:30:39.381Z,0.10
2023-01-22T04:33:41.132Z,0.10
2023-01-22T04:36:42.855Z,0.10
2023-01-22T04:39:44.560Z,0.10
2023-01-22T04:42:46.700Z,0.10
2023-01-22T04:45:50.894Z,0.10
2023-01-22T04:48:52.594Z,0.10
2023-01-22T04:51:54.275Z,0.10
2023-01-22T04:54:55.964Z,0.10
2023-01-22T04:57:59.098Z,0.10
2023-01-22T05:01:00.766Z,0.10
2023-01-22T05:04:02.803Z,0.20
2023-01-22T05:07:04.494Z,0.10
2023-01-22T05:10:06.819Z,0.10
2023-01-22T05:13:08.513Z,0.20
2023-01-22T05:16:10.226Z,0.10
2023-01-22T05:19:11.935Z,0.10
2023-01-22T05:22:13.753Z,0.20
2023-01-22T05:25:15.514Z,0.20
2023-01-22T05:28:17.272Z,0.20
2023-01-22T05:31:19.108Z,0.20
2023-01-22T05:34:20.999Z,0.20
2023-01-22T05:37:22.755Z,0.20
2023-01-22T05:40:24.442Z,0.20
2023-01-22T05:43:26.116Z,0.20
2023-01-22T05:46:27.809Z,0.20
2023-01-22T05:49:29.498Z,0.20
2023-01-22T05:52:31.169Z,0.20
2023-01-22T05:55:34.345Z,0.20
2023-01-22T05:58:36.076Z,0.20
2023-01-22T06:01:56.862Z,0.20
2023-01-22T06:04:58.670Z,0.20
2023-01-22T06:08:00.349Z,0.20
2023-01-22T06:11:07.059Z,0.20
2023-01-22T06:14:08.787Z,0.10
2023-01-22T06:17:10.474Z,0.10
2023-01-22T06:20:12.329Z,0.10
2023-01-22T06:23:14.550Z,0.20
2023-01-22T06:26:16.235Z,0.20
2023-01-22T06:29:17.922Z,0.20
2023-01-22T06:32:19.540Z,0.20
2023-01-22T06:35:21.529Z,0.10
2023-01-22T06:38:24.340Z,0.10
2023-01-22T06:41:26.116Z,0.10
2023-01-22T06:44:27.795Z,0.20
2023-01-22T06:47:29.496Z,0.10
2023-01-22T06:50:31.135Z,0.20
2023-01-22T06:53:33.213Z,0.20
2023-01-22T06:56:34.884Z,0.20
2023-01-22T06:59:37.278Z,0.20
2023-01-22T07:02:39.065Z,0.10
2023-01-22T07:05:40.821Z,0.20
2023-01-22T07:08:42.466Z,0.20
2023-01-22T07:11:44.278Z,0.20
2023-01-22T07:14:45.989Z,0.20
2023-01-22T07:17:52.277Z,0.20
2023-01-22T07:20:54.097Z,0.20
2023-01-22T07:24:01.465Z,0.20
2023-01-22T07:34:40.333Z,0.20
2023-01-22T07:37:41.983Z,0.20
2023-01-22T07:40:43.660Z,0.20
2023-01-22T07:43:45.531Z,0.20
2023-01-22T07:46:47.256Z,0.20
2023-01-22T07:49:48.977Z,0.20
2023-01-22T07:52:50.750Z,0.20
2023-01-22T07:55:52.441Z,0.20
2023-01-22T07:58:54.066Z,0.20
2023-01-22T08:01:56.144Z,0.20
2023-01-22T08:04:57.837Z,0.20
2023-01-22T08:07:59.526Z,0.30
2023-01-22T08:11:01.216Z,0.30
2023-01-22T08:14:02.903Z,0.40
2023-01-22T08:17:04.618Z,0.30
2023-01-22T08:20:07.366Z,0.40
2023-01-22T08:23:09.031Z,0.40
2023-01-22T08:26:10.688Z,0.40
2023-01-22T08:29:12.838Z,0.40
2023-01-22T08:32:14.601Z,0.40
2023-01-22T08:35:16.400Z,0.40
2023-01-22T08:38:18.097Z,0.40
2023-01-22T08:41:20.191Z,0.40
2023-01-22T08:44:21.826Z,0.50
2023-01-22T08:47:24.445Z,0.50
2023-01-22T08:50:29.631Z,0.50
2023-01-22T08:53:31.308Z,0.50
2023-01-22T08:56:33.039Z,0.50
2023-01-22T08:59:34.725Z,0.60
2023-01-22T09:02:36.393Z,0.60
2023-01-22T09:05:40.100Z,0.60
2023-01-22T09:08:42.699Z,0.70
2023-01-22T09:11:46.068Z,0.70
2023-01-22T09:14:47.840Z,0.70
2023-01-22T09:17:49.541Z,0.70
2023-01-22T09:20:51.619Z,0.70
2023-01-22T09:23:53.751Z,0.70
2023-01-22T09:26:55.419Z,0.60
2023-01-22T09:29:57.294Z,0.70
2023-01-22T09:32:59.349Z,0.70
2023-01-22T09:36:12.664Z,0.70
2023-01-22T09:39:14.318Z,0.70
2023-01-22T09:42:38.070Z,0.80
2023-01-22T09:45:41.278Z,0.80
2023-01-22T09:48:47.899Z,0.80
2023-01-22T09:52:01.924Z,0.70
2023-01-22T09:55:11.757Z,0.70
2023-01-22T09:58:20.253Z,0.80
2023-01-22T10:01:23.074Z,0.80
2023-01-22T10:04:43.752Z,0.80
2023-01-22T10:07:57.552Z,0.80
2023-01-22T10:11:03.243Z,0.90
2023-01-22T10:14:08.947Z,0.90
2023-01-22T10:17:23.865Z,0.90
2023-01-22T10:20:26.572Z,0.90
2023-01-22T10:23:30.817Z,0.90
2023-01-22T10:26:42.782Z,1.00
2023-01-22T10:30:04.564Z,1.00
2023-01-22T10:33:07.273Z,1.00
2023-01-22T10:36:14.863Z,1.00
2023-01-22T10:39:17.529Z,1.00
2023-01-22T10:42:28.155Z,1.10
2023-01-22T10:45:30.013Z,1.10
2023-01-22T10:48:31.857Z,1.10
2023-01-22T10:51:42.506Z,1.10
2023-01-22T10:54:50.478Z,1.10
2023-01-22T10:58:15.940Z,1.10
2023-01-22T11:01:33.169Z,1.10
2023-01-22T11:04:34.962Z,1.10
2023-01-22T11:07:36.694Z,1.10
2023-01-22T11:10:44.386Z,1.10
2023-01-22T11:14:22.395Z,1.20
2023-01-22T11:17:44.002Z,1.20
2023-01-22T11:20:50.615Z,1.30
2023-01-22T11:23:59.029Z,1.30
2023-01-22T11:27:23.927Z,1.30
2023-01-22T11:30:36.355Z,1.30
2023-01-22T11:34:00.995Z,1.40
2023-01-22T11:37:10.826Z,1.40
2023-01-22T11:40:28.673Z,1.30
2023-01-22T11:43:40.912Z,1.30
2023-01-22T11:47:20.249Z,1.30
2023-01-22T11:50:55.531Z,1.30
2023-01-22T11:54:34.569Z,1.30
2023-01-22T11:57:46.316Z,1.30
2023-01-22T12:01:16.756Z,1.30
2023-01-22T12:04:36.484Z,1.40
2023-01-22T12:08:17.051Z,1.30
2023-01-22T12:11:43.343Z,1.20
2023-01-22T12:14:47.119Z,1.30
2023-01-22T12:18:26.423Z,1.30
2023-01-22T12:21:58.031Z,1.30
2023-01-22T12:25:18.437Z,1.30
2023-01-22T12:28:26.797Z,1.30
2023-01-22T12:31:35.459Z,1.30
2023-01-22T12:34:52.488Z,1.30
2023-01-22T12:38:06.058Z,1.30
2023-01-22T12:41:35.148Z,1.30
2023-01-22T12:44:44.505Z,1.30
2023-01-22T12:47:46.112Z,1.30
2023-01-22T12:50:56.488Z,1.30
2023-01-22T12:54:16.741Z,1.30
2023-01-22T12:57:21.473Z,1.30
2023-01-22T13:00:36.427Z,1.40
2023-01-22T13:03:40.361Z,1.40
2023-01-22T13:06:43.518Z,1.50
2023-01-22T13:09:45.336Z,1.50
2023-01-22T13:12:50.098Z,1.50
2023-01-22T13:15:54.587Z,1.50
2023-01-22T13:18:59.745Z,1.50
2023-01-22T13:22:02.915Z,1.60
2023-01-22T13:25:04.937Z,1.60
2023-01-22T13:28:10.768Z,1.60
2023-01-22T13:31:16.787Z,1.60
2023-01-22T13:34:18.523Z,1.70
2023-01-22T13:37:25.401Z,1.70
2023-01-22T13:40:30.377Z,1.70
2023-01-22T13:43:38.431Z,1.60
2023-01-22T13:46:40.478Z,1.60
2023-01-22T13:49:43.463Z,1.50
2023-01-22T13:52:45.246Z,1.50
2023-01-22T13:55:46.945Z,1.50
2023-01-22T13:58:49.725Z,1.40
2023-01-22T14:01:51.641Z,1.40
2023-01-22T14:04:53.648Z,1.50
2023-01-22T14:08:07.234Z,1.40
2023-01-22T14:11:08.891Z,1.40
2023-01-22T14:14:18.778Z,1.40
2023-01-22T14:17:33.880Z,1.40
2023-01-22T14:20:37.922Z,1.50
2023-01-22T14:23:39.761Z,1.50
2023-01-22T14:26:41.495Z,1.50
2023-01-22T14:29:43.170Z,1.50
2023-01-22T14:32:45.578Z,1.40
2023-01-22T14:35:47.209Z,1.30
2023-01-22T14:38:51.333Z,1.30
2023-01-22T14:41:53.007Z,1.20
2023-01-22T14:44:54.962Z,1.20
2023-01-22T14:47:56.835Z,1.20
2023-01-22T14:50:58.576Z,1.20
2023-01-22T14:54:00.255Z,1.20
2023-01-22T14:57:03.429Z,1.10
2023-01-22T15:00:07.535Z,1.10
2023-01-22T15:03:09.187Z,1.10
2023-01-22T15:06:10.893Z,1.20
2023-01-22T15:09:12.576Z,1.20
2023-01-22T15:12:14.272Z,1.10
2023-01-22T15:15:25.175Z,1.00
2023-01-22T15:18:26.900Z,1.00
2023-01-22T15:21:28.589Z,1.00
2023-01-22T15:24:30.275Z,1.00
2023-01-22T15:27:31.928Z,1.00
2023-01-22T15:30:33.547Z,1.00
2023-01-22T15:33:36.306Z,1.00
2023-01-22T15:36:41.225Z,1.00
2023-01-22T15:39:42.882Z,1.00
2023-01-22T15:42:45.468Z,1.00
2023-01-22T15:45:47.128Z,1.00
2023-01-22T15:48:49.097Z,1.00
2023-01-22T15:51:50.762Z,1.00
2023-01-22T15:54:53.710Z,1.00
2023-01-22T15:57:55.368Z,1.00
2023-01-22T16:01:04.442Z,1.00
2023-01-22T16:04:06.715Z,0.90
2023-01-22T16:07:08.354Z,0.90
2023-01-22T16:10:10.750Z,0.90
2023-01-22T16:13:12.455Z,0.90
2023-01-22T16:16:23.219Z,0.80
2023-01-22T16:19:24.870Z,0.80
2023-01-22T16:22:27.411Z,0.80
2023-01-22T16:25:29.046Z,0.80
2023-01-22T16:28:30.725Z,0.80
2023-01-22T16:31:34.526Z,0.80
2023-01-22T16:34:36.624Z,0.80
2023-01-22T16:37:38.594Z,0.80
2023-01-22T16:40:40.692Z,0.80
2023-01-22T16:43:42.361Z,0.80
2023-01-22T16:46:49.528Z,0.80
2023-01-22T16:49:51.524Z,0.80
2023-01-22T16:52:53.183Z,0.80
2023-01-22T16:55:54.886Z,0.90
2023-01-22T16:58:56.519Z,0.90
2023-01-22T17:02:00.580Z,0.90
2023-01-22T17:05:02.245Z,0.90
2023-01-22T17:08:04.079Z,0.90
2023-01-22T17:11:06.345Z,0.90
2023-01-22T17:14:08.084Z,0.90
2023-01-22T17:17:11.315Z,0.90
2023-01-22T17:20:12.975Z,0.90
2023-01-22T17:23:14.702Z,0.90
2023-01-22T17:26:17.345Z,0.90
2023-01-22T17:29:19.986Z,0.90
2023-01-22T17:32:22.433Z,0.90
2023-01-22T17:35:24.100Z,0.90
2023-01-22T17:38:27.579Z,0.90
2023-01-22T17:41:30.173Z,0.90
2023-01-22T17:44:34.243Z,0.90
2023-01-22T17:47:35.899Z,0.80
2023-01-22T17:50:37.539Z,0.90
2023-01-22T17:53:41.335Z,0.90
2023-01-22T17:56:47.159Z,0.90
2023-01-22T17:59:48.898Z,0.90
2023-01-22T18:02:53.744Z,0.90
2023-01-22T18:05:55.448Z,0.80
2023-01-22T18:08:57.806Z,0.80
2023-01-22T18:12:00.413Z,0.80
2023-01-22T18:15:02.132Z,0.80
2023-01-22T18:18:15.235Z,0.80
2023-01-22T18:21:19.297Z,0.80
2023-01-22T18:24:24.126Z,0.80
2023-01-22T18:27:26.031Z,0.80
2023-01-22T18:30:27.739Z,0.90
2023-01-22T18:33:29.416Z,0.90
2023-01-22T18:36:37.161Z,0.90
2023-01-22T18:39:40.531Z,0.90
2023-01-22T18:42:42.247Z,0.90
2023-01-22T18:45:43.936Z,0.90
2023-01-22T18:48:45.787Z,0.90
2023-01-22T18:51:47.661Z,0.90
2023-01-22T18:54:49.335Z,0.90
2023-01-22T18:58:08.545Z,0.80
2023-01-22T19:01:13.767Z,0.80
2023-01-22T19:04:19.000Z,0.80
2023-01-22T19:07:20.615Z,0.90
2023-01-22T19:10:23.202Z,0.80
2023-01-22T19:13:31.322Z,0.90
2023-01-22T19:16:33.223Z,0.90
2023-01-22T19:19:34.888Z,0.80
2023-01-22T19:22:36.582Z,0.90
2023-01-22T19:25:43.022Z,0.80
2023-01-22T19:28:44.716Z,0.80
2023-01-22T19:31:52.833Z,0.80
2023-01-22T19:34:57.884Z,0.80
2023-01-22T19:37:59.519Z,0.80
2023-01-22T19:41:04.274Z,0.80
2023-01-22T19:44:06.718Z,0.80
2023-01-22T19:47:09.311Z,0.70
2023-01-22T19:50:11.309Z,0.80
2023-01-22T19:53:12.988Z,0.80
2023-01-22T19:56:35.863Z,0.80
2023-01-22T19:59:37.507Z,0.80
2023-01-22T20:02:40.415Z,0.80
2023-01-22T20:05:44.487Z,0.80
2023-01-22T20:08:46.167Z,0.80
2023-01-22T20:11:53.739Z,0.80
2023-01-22T20:14:55.540Z,0.80
2023-01-22T20:17:57.216Z,0.80
2023-01-22T20:21:01.935Z,0.80
2023-01-22T20:24:05.206Z,0.80
2023-01-22T20:27:08.033Z,0.80
2023-01-22T20:30:10.382Z,0.80
2023-01-22T20:33:12.145Z,0.70
2023-01-22T20:36:17.444Z,0.70
2023-01-22T20:39:19.671Z,0.70
2023-01-22T20:42:21.656Z,0.70
2023-01-22T20:45:23.440Z,0.70
2023-01-22T20:48:25.117Z,0.70
2023-01-22T20:51:28.726Z,0.80
2023-01-22T20:54:32.115Z,0.80
2023-01-22T20:57:33.812Z,0.80
2023-01-22T21:00:35.561Z,0.90
2023-01-22T21:03:37.717Z,0.90
2023-01-22T21:06:40.364Z,1.00
2023-01-22T21:09:42.092Z,0.90
2023-01-22T21:12:45.167Z,1.00
2023-01-22T21:15:48.352Z,1.00
2023-01-22T21:18:50.009Z,1.00
2023-01-22T21:21:52.618Z,0.90
2023-01-22T21:24:54.360Z,0.90
2023-01-22T21:27:56.044Z,0.90
2023-01-22T21:31:15.737Z,1.00
2023-01-22T21:34:19.440Z,0.90
2023-01-22T21:37:21.139Z,0.90
2023-01-22T21:40:22.833Z,0.90
2023-01-22T21:43:42.905Z,0.90
2023-01-22T21:46:54.572Z,0.90
2023-01-22T21:49:56.601Z,0.90
2023-01-22T21:52:58.295Z,0.80
2023-01-22T21:56:00.032Z,0.80
2023-01-22T21:59:01.860Z,0.80
2023-01-22T22:02:05.227Z,0.80
2023-01-22T22:05:07.201Z,0.70
2023-01-22T22:08:09.250Z,0.70
2023-01-22T22:11:13.272Z,0.60
2023-01-22T22:14:16.802Z,0.60
2023-01-22T22:17:28.598Z,0.60
2023-01-22T22:20:30.256Z,0.60
2023-01-22T22:23:32.452Z,0.70
2023-01-22T22:26:34.722Z,0.70
2023-01-22T22:29:36.412Z,0.60
2023-01-22T22:32:38.091Z,0.70
2023-01-22T22:35:39.821Z,0.70
2023-01-22T22:38:42.101Z,0.70
2023-01-22T22:41:43.972Z,0.70
2023-01-22T22:44:45.705Z,0.70
2023-01-22T22:47:47.355Z,0.80
2023-01-22T22:50:49.057Z,0.70
2023-01-22T22:53:56.024Z,0.70
2023-01-22T22:56:57.677Z,0.70
2023-01-22T23:00:04.449Z,0.80
2023-01-22T23:03:06.083Z,0.80
2023-01-22T23:06:20.083Z,0.80
2023-01-22T23:09:21.798Z,0.80
2023-01-22T23:12:23.430Z,0.80
2023-01-22T23:15:26.848Z,0.80
2023-01-22T23:18:29.143Z,0.80
2023-01-22T23:21:35.026Z,0.90
2023-01-22T23:24:36.699Z,0.90
2023-01-22T23:27:38.343Z,0.90
2023-01-22T23:30:40.157Z,1.00
2023-01-22T23:33:43.410Z,1.00
2023-01-22T23:36:46.496Z,1.00
2023-01-22T23:39:51.028Z,1.10
2023-01-22T23:42:52.734Z,1.00
2023-01-22T23:45:54.952Z,1.00
2023-01-22T23:48:58.892Z,1.00
2023-01-22T23:52:00.546Z,1.00
2023-01-22T23:55:02.719Z,1.00
2023-01-22T23:58:04.713Z,0.90
